I Boat 2 — 2CMM8 — position and weather

sailwx.info

Track history (hours):
 
Tides and Currents Weather Stations Pressure Air Temp Water Temp Dewpoint Dewpoint Depression Visibility Wind Speed Wind Dir Waves Ship Positions

I Boat 2

Last reported at 2016-Aug-26 00:33 UTC. Time now 2016-Aug-26 01:30 UTC.
Position N 37°30' E 023°27'.

Length 40 m; draft 2.4 m.

Type: Pleasure craft. MMSI: 235074051.

Date/timePositionNaut miles runAvg speedWind from/ knotsBaromVisibWave heightAir tempDewpointWater temp
2016-Aug-26 00:33N 37°30' E 023°27'0 0.0
2016-Aug-25 23:33N 37°30' E 023°27'0 0.0
2016-Aug-25 22:33N 37°30' E 023°27'0 0.0
2016-Aug-25 21:33N 37°30' E 023°27'0 0.0
2016-Aug-25 20:33N 37°30' E 023°27'0 0.0
2016-Aug-25 19:09N 37°30' E 023°27'0 0.0
2016-Aug-25 18:30N 37°30' E 023°27'0 0.0
2016-Aug-25 17:33N 37°30' E 023°27'1 0.9
2016-Aug-25 16:32N 37°30' E 023°28'0 0.4
2016-Aug-25 15:32N 37°29' E 023°28'2 2.1
2016-Aug-25 14:33N 37°28' E 023°30'9 2.3
2016-Aug-25 10:33N 37°21' E 023°23'  
2016-Aug-21 16:32N 37°21' E 023°04'13 0.5
2016-Aug-20 14:26N 37°16' E 023°18'1 0.6
2016-Aug-20 13:32N 37°16' E 023°19'0 0.0
2016-Aug-20 12:23N 37°16' E 023°19'0 0.0
2016-Aug-20 11:32N 37°16' E 023°19'0 0.0
2016-Aug-20 10:26N 37°16' E 023°19'0 0.0
2016-Aug-20 09:33N 37°16' E 023°19'6 6.0
2016-Aug-20 08:32N 37°17' E 023°11'4 0.1
2016-Aug-19 01:31N 37°17' E 023°07'0 0.0
2016-Aug-19 00:13N 37°17' E 023°07'0 0.0
2016-Aug-17 00:22N 37°17' E 023°07'0 0.0
2016-Aug-16 23:25N 37°17' E 023°07'0 0.0
2016-Aug-16 22:28N 37°17' E 023°07'  
Track history (hours):
 
Tides and Currents Weather Stations Pressure Air Temp Water Temp Dewpoint Dewpoint Depression Visibility Wind Speed Wind Dir Waves Ship Positions

I Boat 2

Last reported at 2016-Aug-26 00:33 UTC. Time now 2016-Aug-26 01:30 UTC.
Position N 37°30' E 023°27'.

Length 40 m; draft 2.4 m.

Type: Pleasure craft. MMSI: 235074051.

Date/timePositionNaut miles runAvg speedWind from/ knotsBaromVisibWave heightAir tempDewpointWater temp
2016-Aug-26 00:33N 37°30' E 023°27'0 0.0
2016-Aug-25 23:33N 37°30' E 023°27'0 0.0
2016-Aug-25 22:33N 37°30' E 023°27'0 0.0
2016-Aug-25 21:33N 37°30' E 023°27'0 0.0
2016-Aug-25 20:33N 37°30' E 023°27'0 0.0
2016-Aug-25 19:09N 37°30' E 023°27'0 0.0
2016-Aug-25 18:30N 37°30' E 023°27'0 0.0
2016-Aug-25 17:33N 37°30' E 023°27'1 0.9
2016-Aug-25 16:32N 37°30' E 023°28'0 0.4
2016-Aug-25 15:32N 37°29' E 023°28'2 2.1
2016-Aug-25 14:33N 37°28' E 023°30'9 2.3
2016-Aug-25 10:33N 37°21' E 023°23'  
2016-Aug-21 16:32N 37°21' E 023°04'13 0.5
2016-Aug-20 14:26N 37°16' E 023°18'1 0.6
2016-Aug-20 13:32N 37°16' E 023°19'0 0.0
2016-Aug-20 12:23N 37°16' E 023°19'0 0.0
2016-Aug-20 11:32N 37°16' E 023°19'0 0.0
2016-Aug-20 10:26N 37°16' E 023°19'0 0.0
2016-Aug-20 09:33N 37°16' E 023°19'6 6.0
2016-Aug-20 08:32N 37°17' E 023°11'4 0.1
2016-Aug-19 01:31N 37°17' E 023°07'0 0.0
2016-Aug-19 00:13N 37°17' E 023°07'0 0.0
2016-Aug-17 00:22N 37°17' E 023°07'0 0.0
2016-Aug-16 23:25N 37°17' E 023°07'0 0.0
2016-Aug-16 22:28N 37°17' E 023°07'  

Dump ship's entire track history